sensor_id;sensor_type;location;lat;lon;timestamp;P1;durP1;ratioP1;P2;durP2;ratioP2
65597;SDS011;52267;51.984;20.956;2023-06-14T00:00:55;9.20;;;6.70;;
65597;SDS011;52267;51.984;20.956;2023-06-14T00:03:42;10.90;;;6.00;;
65597;SDS011;52267;51.984;20.956;2023-06-14T00:06:09;11.00;;;6.20;;
65597;SDS011;52267;51.984;20.956;2023-06-14T00:08:36;11.10;;;6.90;;
65597;SDS011;52267;51.984;20.956;2023-06-14T00:11:04;10.70;;;7.20;;
65597;SDS011;52267;51.984;20.956;2023-06-14T00:13:31;10.60;;;6.70;;
65597;SDS011;52267;51.984;20.956;2023-06-14T00:15:58;11.50;;;6.50;;
65597;SDS011;52267;51.984;20.956;2023-06-14T00:18:25;11.80;;;7.80;;
65597;SDS011;52267;51.984;20.956;2023-06-14T00:20:53;10.10;;;6.90;;
65597;SDS011;52267;51.984;20.956;2023-06-14T00:23:20;9.50;;;6.20;;
65597;SDS011;52267;51.984;20.956;2023-06-14T00:25:47;8.10;;;6.40;;
65597;SDS011;52267;51.984;20.956;2023-06-14T00:28:14;9.70;;;6.90;;
65597;SDS011;52267;51.984;20.956;2023-06-14T00:30:41;10.60;;;6.90;;
65597;SDS011;52267;51.984;20.956;2023-06-14T00:33:10;8.70;;;6.40;;
65597;SDS011;52267;51.984;20.956;2023-06-14T00:35:37;9.10;;;6.20;;
65597;SDS011;52267;51.984;20.956;2023-06-14T00:38:05;10.10;;;5.90;;
65597;SDS011;52267;51.984;20.956;2023-06-14T00:40:32;8.20;;;5.80;;
65597;SDS011;52267;51.984;20.956;2023-06-14T00:42:59;9.20;;;6.40;;
65597;SDS011;52267;51.984;20.956;2023-06-14T00:45:26;7.90;;;5.60;;
65597;SDS011;52267;51.984;20.956;2023-06-14T00:47:53;8.70;;;6.60;;
65597;SDS011;52267;51.984;20.956;2023-06-14T00:50:22;10.50;;;6.60;;
65597;SDS011;52267;51.984;20.956;2023-06-14T00:52:50;10.00;;;6.20;;
65597;SDS011;52267;51.984;20.956;2023-06-14T00:55:17;10.30;;;6.50;;
65597;SDS011;52267;51.984;20.956;2023-06-14T00:57:44;8.70;;;6.10;;
65597;SDS011;52267;51.984;20.956;2023-06-14T01:00:12;9.20;;;6.50;;
65597;SDS011;52267;51.984;20.956;2023-06-14T01:02:40;12.60;;;6.70;;
65597;SDS011;52267;51.984;20.956;2023-06-14T01:05:08;11.60;;;7.00;;
65597;SDS011;52267;51.984;20.956;2023-06-14T01:13:37;11.40;;;7.50;;
65597;SDS011;52267;51.984;20.956;2023-06-14T01:16:07;12.50;;;7.50;;
65597;SDS011;52267;51.984;20.956;2023-06-14T01:18:36;9.60;;;7.10;;
65597;SDS011;52267;51.984;20.956;2023-06-14T01:21:05;9.20;;;6.90;;
65597;SDS011;52267;51.984;20.956;2023-06-14T01:23:34;13.60;;;7.40;;
65597;SDS011;52267;51.984;20.956;2023-06-14T01:26:03;10.30;;;6.80;;
65597;SDS011;52267;51.984;20.956;2023-06-14T01:28:33;12.80;;;6.90;;
65597;SDS011;52267;51.984;20.956;2023-06-14T01:31:01;10.80;;;6.70;;
65597;SDS011;52267;51.984;20.956;2023-06-14T01:33:33;9.50;;;7.10;;
65597;SDS011;52267;51.984;20.956;2023-06-14T01:36:02;11.10;;;7.60;;
65597;SDS011;52267;51.984;20.956;2023-06-14T01:38:32;12.50;;;8.20;;
65597;SDS011;52267;51.984;20.956;2023-06-14T01:41:00;11.30;;;8.00;;
65597;SDS011;52267;51.984;20.956;2023-06-14T01:43:31;11.30;;;7.50;;
65597;SDS011;52267;51.984;20.956;2023-06-14T01:45:58;10.50;;;7.50;;
65597;SDS011;52267;51.984;20.956;2023-06-14T01:48:26;14.00;;;8.50;;
65597;SDS011;52267;51.984;20.956;2023-06-14T01:50:53;11.80;;;8.00;;
65597;SDS011;52267;51.984;20.956;2023-06-14T01:53:20;12.10;;;8.50;;
65597;SDS011;52267;51.984;20.956;2023-06-14T01:55:47;15.10;;;8.90;;
65597;SDS011;52267;51.984;20.956;2023-06-14T01:58:15;11.40;;;8.40;;
65597;SDS011;52267;51.984;20.956;2023-06-14T02:00:43;12.70;;;8.20;;
65597;SDS011;52267;51.984;20.956;2023-06-14T02:03:11;15.90;;;8.50;;
65597;SDS011;52267;51.984;20.956;2023-06-14T02:05:39;13.10;;;9.00;;
65597;SDS011;52267;51.984;20.956;2023-06-14T02:08:06;14.50;;;8.70;;
65597;SDS011;52267;51.984;20.956;2023-06-14T02:10:34;14.40;;;8.90;;
65597;SDS011;52267;51.984;20.956;2023-06-14T02:13:01;11.60;;;8.30;;
65597;SDS011;52267;51.984;20.956;2023-06-14T02:15:28;13.40;;;9.10;;
65597;SDS011;52267;51.984;20.956;2023-06-14T02:18:03;13.00;;;9.70;;
65597;SDS011;52267;51.984;20.956;2023-06-14T02:20:31;11.50;;;8.40;;
65597;SDS011;52267;51.984;20.956;2023-06-14T02:22:59;15.20;;;9.20;;
65597;SDS011;52267;51.984;20.956;2023-06-14T02:25:27;13.80;;;8.70;;
65597;SDS011;52267;51.984;20.956;2023-06-14T02:27:57;15.80;;;9.40;;
65597;SDS011;52267;51.984;20.956;2023-06-14T02:30:24;11.60;;;9.50;;
65597;SDS011;52267;51.984;20.956;2023-06-14T02:32:51;20.00;;;9.90;;
65597;SDS011;52267;51.984;20.956;2023-06-14T02:35:19;12.90;;;9.00;;
65597;SDS011;52267;51.984;20.956;2023-06-14T02:37:48;12.60;;;9.50;;
65597;SDS011;52267;51.984;20.956;2023-06-14T02:40:15;12.70;;;9.20;;
65597;SDS011;52267;51.984;20.956;2023-06-14T02:42:42;15.40;;;9.30;;
65597;SDS011;52267;51.984;20.956;2023-06-14T02:45:10;11.30;;;8.50;;
65597;SDS011;52267;51.984;20.956;2023-06-14T02:47:37;12.30;;;8.80;;
65597;SDS011;52267;51.984;20.956;2023-06-14T02:50:04;12.20;;;9.00;;
65597;SDS011;52267;51.984;20.956;2023-06-14T02:52:32;12.70;;;9.20;;
65597;SDS011;52267;51.984;20.956;2023-06-14T02:54:59;13.20;;;9.00;;
65597;SDS011;52267;51.984;20.956;2023-06-14T02:57:27;16.00;;;9.60;;
65597;SDS011;52267;51.984;20.956;2023-06-14T02:59:54;13.50;;;9.50;;
65597;SDS011;52267;51.984;20.956;2023-06-14T03:02:21;12.20;;;9.60;;
65597;SDS011;52267;51.984;20.956;2023-06-14T03:04:48;13.00;;;8.80;;
65597;SDS011;52267;51.984;20.956;2023-06-14T03:07:15;11.70;;;8.50;;
65597;SDS011;52267;51.984;20.956;2023-06-14T03:09:46;15.10;;;9.00;;
65597;SDS011;52267;51.984;20.956;2023-06-14T03:12:13;13.00;;;9.20;;
65597;SDS011;52267;51.984;20.956;2023-06-14T03:14:41;11.50;;;8.30;;
65597;SDS011;52267;51.984;20.956;2023-06-14T03:17:08;12.00;;;8.80;;
65597;SDS011;52267;51.984;20.956;2023-06-14T03:19:36;12.20;;;9.30;;
65597;SDS011;52267;51.984;20.956;2023-06-14T03:22:04;10.40;;;8.20;;
65597;SDS011;52267;51.984;20.956;2023-06-14T03:24:31;11.00;;;8.60;;
65597;SDS011;52267;51.984;20.956;2023-06-14T03:29:30;12.80;;;8.70;;
65597;SDS011;52267;51.984;20.956;2023-06-14T03:32:02;11.80;;;8.80;;
65597;SDS011;52267;51.984;20.956;2023-06-14T03:34:30;12.10;;;9.60;;
65597;SDS011;52267;51.984;20.956;2023-06-14T03:36:57;13.10;;;9.30;;
65597;SDS011;52267;51.984;20.956;2023-06-14T03:39:24;13.10;;;8.80;;
65597;SDS011;52267;51.984;20.956;2023-06-14T03:41:51;11.90;;;9.70;;
65597;SDS011;52267;51.984;20.956;2023-06-14T03:44:18;19.90;;;10.30;;
65597;SDS011;52267;51.984;20.956;2023-06-14T03:46:46;12.20;;;8.70;;
65597;SDS011;52267;51.984;20.956;2023-06-14T03:49:13;13.30;;;8.80;;
65597;SDS011;52267;51.984;20.956;2023-06-14T03:51:46;12.70;;;8.40;;
65597;SDS011;52267;51.984;20.956;2023-06-14T03:54:17;12.70;;;8.50;;
65597;SDS011;52267;51.984;20.956;2023-06-14T03:56:44;12.00;;;9.40;;
65597;SDS011;52267;51.984;20.956;2023-06-14T03:59:12;11.40;;;8.80;;
65597;SDS011;52267;51.984;20.956;2023-06-14T04:01:39;13.80;;;9.20;;
65597;SDS011;52267;51.984;20.956;2023-06-14T04:04:13;12.00;;;8.70;;
65597;SDS011;52267;51.984;20.956;2023-06-14T04:06:43;11.60;;;8.30;;
65597;SDS011;52267;51.984;20.956;2023-06-14T04:09:10;13.00;;;8.70;;
65597;SDS011;52267;51.984;20.956;2023-06-14T04:11:37;11.80;;;8.60;;
65597;SDS011;52267;51.984;20.956;2023-06-14T04:14:05;11.70;;;8.90;;
65597;SDS011;52267;51.984;20.956;2023-06-14T04:16:32;12.00;;;8.70;;
65597;SDS011;52267;51.984;20.956;2023-06-14T04:19:00;12.00;;;8.90;;
65597;SDS011;52267;51.984;20.956;2023-06-14T04:21:27;12.70;;;9.70;;
65597;SDS011;52267;51.984;20.956;2023-06-14T04:23:55;16.50;;;9.60;;
65597;SDS011;52267;51.984;20.956;2023-06-14T04:26:22;12.70;;;9.70;;
65597;SDS011;52267;51.984;20.956;2023-06-14T04:28:56;13.20;;;8.70;;
65597;SDS011;52267;51.984;20.956;2023-06-14T04:31:31;11.70;;;8.50;;
65597;SDS011;52267;51.984;20.956;2023-06-14T04:34:00;11.80;;;9.00;;
65597;SDS011;52267;51.984;20.956;2023-06-14T04:36:28;15.10;;;8.50;;
65597;SDS011;52267;51.984;20.956;2023-06-14T04:38:55;12.40;;;9.20;;
65597;SDS011;52267;51.984;20.956;2023-06-14T04:41:22;12.90;;;9.30;;
65597;SDS011;52267;51.984;20.956;2023-06-14T04:43:54;14.70;;;9.30;;
65597;SDS011;52267;51.984;20.956;2023-06-14T04:46:24;11.60;;;7.60;;
65597;SDS011;52267;51.984;20.956;2023-06-14T04:48:51;12.80;;;9.90;;
65597;SDS011;52267;51.984;20.956;2023-06-14T04:51:18;13.50;;;9.40;;
65597;SDS011;52267;51.984;20.956;2023-06-14T04:53:48;13.30;;;8.90;;
65597;SDS011;52267;51.984;20.956;2023-06-14T04:56:16;12.20;;;9.20;;
65597;SDS011;52267;51.984;20.956;2023-06-14T04:58:43;11.10;;;8.20;;
65597;SDS011;52267;51.984;20.956;2023-06-14T05:01:10;12.40;;;8.70;;
65597;SDS011;52267;51.984;20.956;2023-06-14T05:03:39;11.90;;;8.70;;
65597;SDS011;52267;51.984;20.956;2023-06-14T05:06:08;12.30;;;9.00;;
65597;SDS011;52267;51.984;20.956;2023-06-14T05:08:35;12.20;;;8.70;;
65597;SDS011;52267;51.984;20.956;2023-06-14T05:11:02;11.30;;;8.60;;
65597;SDS011;52267;51.984;20.956;2023-06-14T05:13:29;11.80;;;8.60;;
65597;SDS011;52267;51.984;20.956;2023-06-14T05:15:59;12.00;;;8.50;;
65597;SDS011;52267;51.984;20.956;2023-06-14T05:18:26;11.20;;;8.10;;
65597;SDS011;52267;51.984;20.956;2023-06-14T05:20:53;11.50;;;8.90;;
65597;SDS011;52267;51.984;20.956;2023-06-14T05:23:20;12.50;;;8.20;;
65597;SDS011;52267;51.984;20.956;2023-06-14T05:25:48;13.10;;;9.40;;
65597;SDS011;52267;51.984;20.956;2023-06-14T05:28:15;12.10;;;8.60;;
65597;SDS011;52267;51.984;20.956;2023-06-14T05:30:42;11.30;;;8.30;;
65597;SDS011;52267;51.984;20.956;2023-06-14T05:33:10;11.40;;;8.20;;
65597;SDS011;52267;51.984;20.956;2023-06-14T05:35:37;10.90;;;8.70;;
65597;SDS011;52267;51.984;20.956;2023-06-14T05:38:04;11.50;;;8.30;;
65597;SDS011;52267;51.984;20.956;2023-06-14T05:40:35;12.90;;;8.50;;
65597;SDS011;52267;51.984;20.956;2023-06-14T05:43:02;10.80;;;8.50;;
65597;SDS011;52267;51.984;20.956;2023-06-14T05:45:29;11.70;;;9.10;;
65597;SDS011;52267;51.984;20.956;2023-06-14T05:47:56;12.20;;;8.30;;
65597;SDS011;52267;51.984;20.956;2023-06-14T05:50:23;12.80;;;8.10;;
65597;SDS011;52267;51.984;20.956;2023-06-14T05:52:50;13.20;;;9.10;;
65597;SDS011;52267;51.984;20.956;2023-06-14T05:55:17;10.40;;;8.20;;
65597;SDS011;52267;51.984;20.956;2023-06-14T05:57:45;12.00;;;8.10;;
65597;SDS011;52267;51.984;20.956;2023-06-14T06:00:12;10.80;;;7.80;;
65597;SDS011;52267;51.984;20.956;2023-06-14T06:02:44;10.30;;;7.30;;
65597;SDS011;52267;51.984;20.956;2023-06-14T06:05:12;11.50;;;7.50;;
65597;SDS011;52267;51.984;20.956;2023-06-14T06:07:39;11.80;;;6.90;;
65597;SDS011;52267;51.984;20.956;2023-06-14T06:10:07;10.60;;;6.90;;
65597;SDS011;52267;51.984;20.956;2023-06-14T06:12:34;11.00;;;7.40;;
65597;SDS011;52267;51.984;20.956;2023-06-14T06:15:02;11.40;;;6.70;;
65597;SDS011;52267;51.984;20.956;2023-06-14T06:17:29;10.80;;;7.00;;
65597;SDS011;52267;51.984;20.956;2023-06-14T06:19:56;10.80;;;6.60;;
65597;SDS011;52267;51.984;20.956;2023-06-14T06:22:23;8.90;;;6.20;;
65597;SDS011;52267;51.984;20.956;2023-06-14T06:24:51;11.60;;;7.00;;
65597;SDS011;52267;51.984;20.956;2023-06-14T06:27:18;11.30;;;6.60;;
65597;SDS011;52267;51.984;20.956;2023-06-14T06:29:45;9.50;;;6.60;;
65597;SDS011;52267;51.984;20.956;2023-06-14T06:32:12;10.00;;;6.60;;
65597;SDS011;52267;51.984;20.956;2023-06-14T06:34:40;9.30;;;7.00;;
65597;SDS011;52267;51.984;20.956;2023-06-14T06:37:07;7.90;;;6.00;;
65597;SDS011;52267;51.984;20.956;2023-06-14T06:39:34;8.70;;;6.10;;
65597;SDS011;52267;51.984;20.956;2023-06-14T06:42:01;11.20;;;6.80;;
65597;SDS011;52267;51.984;20.956;2023-06-14T06:44:28;8.30;;;6.40;;
65597;SDS011;52267;51.984;20.956;2023-06-14T06:46:57;9.10;;;5.70;;
65597;SDS011;52267;51.984;20.956;2023-06-14T06:49:24;7.60;;;6.20;;
65597;SDS011;52267;51.984;20.956;2023-06-14T06:52:05;8.30;;;5.60;;
65597;SDS011;52267;51.984;20.956;2023-06-14T06:54:33;6.90;;;4.70;;
65597;SDS011;52267;51.984;20.956;2023-06-14T06:57:00;7.20;;;5.00;;
65597;SDS011;52267;51.984;20.956;2023-06-14T06:59:30;7.20;;;4.60;;
65597;SDS011;52267;51.984;20.956;2023-06-14T07:01:58;7.10;;;4.90;;
65597;SDS011;52267;51.984;20.956;2023-06-14T07:04:25;7.20;;;4.60;;
65597;SDS011;52267;51.984;20.956;2023-06-14T07:06:52;7.60;;;4.90;;
65597;SDS011;52267;51.984;20.956;2023-06-14T07:09:19;10.10;;;4.70;;
65597;SDS011;52267;51.984;20.956;2023-06-14T07:11:47;8.40;;;5.60;;
65597;SDS011;52267;51.984;20.956;2023-06-14T07:14:14;9.60;;;4.90;;
65597;SDS011;52267;51.984;20.956;2023-06-14T07:16:42;8.70;;;4.90;;
65597;SDS011;52267;51.984;20.956;2023-06-14T07:19:10;6.10;;;4.10;;
65597;SDS011;52267;51.984;20.956;2023-06-14T07:21:37;7.00;;;4.60;;
65597;SDS011;52267;51.984;20.956;2023-06-14T07:24:07;6.20;;;4.50;;
65597;SDS011;52267;51.984;20.956;2023-06-14T07:26:35;8.80;;;4.80;;
65597;SDS011;52267;51.984;20.956;2023-06-14T07:29:02;6.90;;;4.90;;
65597;SDS011;52267;51.984;20.956;2023-06-14T07:31:29;6.50;;;4.70;;
65597;SDS011;52267;51.984;20.956;2023-06-14T07:33:56;7.10;;;4.30;;
65597;SDS011;52267;51.984;20.956;2023-06-14T07:36:23;6.30;;;4.80;;
65597;SDS011;52267;51.984;20.956;2023-06-14T07:38:50;8.40;;;4.70;;
65597;SDS011;52267;51.984;20.956;2023-06-14T07:41:17;7.10;;;4.80;;
65597;SDS011;52267;51.984;20.956;2023-06-14T07:43:45;5.90;;;4.40;;
65597;SDS011;52267;51.984;20.956;2023-06-14T07:46:12;7.80;;;4.10;;
65597;SDS011;52267;51.984;20.956;2023-06-14T07:48:39;5.60;;;4.40;;
65597;SDS011;52267;51.984;20.956;2023-06-14T07:51:06;7.10;;;4.60;;
65597;SDS011;52267;51.984;20.956;2023-06-14T07:53:33;8.40;;;4.60;;
65597;SDS011;52267;51.984;20.956;2023-06-14T07:56:01;7.50;;;4.60;;
65597;SDS011;52267;51.984;20.956;2023-06-14T07:58:29;7.90;;;4.40;;
65597;SDS011;52267;51.984;20.956;2023-06-14T08:00:56;7.40;;;4.40;;
65597;SDS011;52267;51.984;20.956;2023-06-14T08:03:23;7.40;;;4.00;;
65597;SDS011;52267;51.984;20.956;2023-06-14T08:05:51;7.80;;;4.20;;
65597;SDS011;52267;51.984;20.956;2023-06-14T08:08:18;9.00;;;4.40;;
65597;SDS011;52267;51.984;20.956;2023-06-14T08:10:45;7.30;;;4.20;;
65597;SDS011;52267;51.984;20.956;2023-06-14T08:13:12;8.10;;;4.30;;
65597;SDS011;52267;51.984;20.956;2023-06-14T08:15:39;7.70;;;4.00;;
65597;SDS011;52267;51.984;20.956;2023-06-14T08:18:06;6.00;;;4.10;;
65597;SDS011;52267;51.984;20.956;2023-06-14T08:20:34;5.60;;;4.10;;
65597;SDS011;52267;51.984;20.956;2023-06-14T08:23:02;7.90;;;3.90;;
65597;SDS011;52267;51.984;20.956;2023-06-14T08:25:30;6.70;;;4.20;;
65597;SDS011;52267;51.984;20.956;2023-06-14T08:27:58;7.60;;;4.70;;
65597;SDS011;52267;51.984;20.956;2023-06-14T08:30:26;6.20;;;3.90;;
65597;SDS011;52267;51.984;20.956;2023-06-14T08:32:53;7.00;;;3.90;;
65597;SDS011;52267;51.984;20.956;2023-06-14T08:35:22;7.00;;;4.50;;
65597;SDS011;52267;51.984;20.956;2023-06-14T08:37:50;5.40;;;3.90;;
65597;SDS011;52267;51.984;20.956;2023-06-14T08:40:21;6.70;;;4.50;;
65597;SDS011;52267;51.984;20.956;2023-06-14T08:42:54;7.00;;;4.80;;
65597;SDS011;52267;51.984;20.956;2023-06-14T08:45:23;6.10;;;4.20;;
65597;SDS011;52267;51.984;20.956;2023-06-14T08:47:51;5.40;;;3.90;;
65597;SDS011;52267;51.984;20.956;2023-06-14T08:50:22;9.50;;;4.10;;
65597;SDS011;52267;51.984;20.956;2023-06-14T08:52:54;7.60;;;4.40;;
65597;SDS011;52267;51.984;20.956;2023-06-14T08:55:24;6.20;;;4.30;;
65597;SDS011;52267;51.984;20.956;2023-06-14T08:57:56;7.10;;;4.30;;
65597;SDS011;52267;51.984;20.956;2023-06-14T09:00:27;6.90;;;4.10;;
65597;SDS011;52267;51.984;20.956;2023-06-14T09:02:55;8.10;;;5.00;;
65597;SDS011;52267;51.984;20.956;2023-06-14T09:05:26;5.50;;;4.30;;
65597;SDS011;52267;51.984;20.956;2023-06-14T09:07:54;6.90;;;4.60;;
65597;SDS011;52267;51.984;20.956;2023-06-14T09:10:22;8.80;;;4.70;;
65597;SDS011;52267;51.984;20.956;2023-06-14T09:12:51;6.50;;;4.70;;
65597;SDS011;52267;51.984;20.956;2023-06-14T09:15:18;6.60;;;4.60;;
65597;SDS011;52267;51.984;20.956;2023-06-14T09:17:45;6.40;;;4.30;;
65597;SDS011;52267;51.984;20.956;2023-06-14T09:20:12;6.30;;;4.20;;
65597;SDS011;52267;51.984;20.956;2023-06-14T09:22:45;7.10;;;5.00;;
65597;SDS011;52267;51.984;20.956;2023-06-14T09:25:13;9.70;;;5.70;;
65597;SDS011;52267;51.984;20.956;2023-06-14T09:27:42;10.70;;;5.10;;
65597;SDS011;52267;51.984;20.956;2023-06-14T09:30:09;10.20;;;4.90;;
65597;SDS011;52267;51.984;20.956;2023-06-14T09:32:38;8.20;;;4.30;;
65597;SDS011;52267;51.984;20.956;2023-06-14T09:35:09;7.50;;;4.40;;
65597;SDS011;52267;51.984;20.956;2023-06-14T09:37:36;6.80;;;4.20;;
65597;SDS011;52267;51.984;20.956;2023-06-14T09:40:07;5.20;;;4.20;;
65597;SDS011;52267;51.984;20.956;2023-06-14T09:42:34;6.80;;;4.80;;
65597;SDS011;52267;51.984;20.956;2023-06-14T09:45:03;7.20;;;4.50;;
65597;SDS011;52267;51.984;20.956;2023-06-14T09:47:31;6.60;;;3.90;;
65597;SDS011;52267;51.984;20.956;2023-06-14T09:49:58;7.20;;;4.30;;
65597;SDS011;52267;51.984;20.956;2023-06-14T09:52:27;8.40;;;4.00;;
65597;SDS011;52267;51.984;20.956;2023-06-14T09:54:54;8.70;;;4.70;;
65597;SDS011;52267;51.984;20.956;2023-06-14T09:57:23;8.50;;;4.60;;
65597;SDS011;52267;51.984;20.956;2023-06-14T09:59:57;7.00;;;4.20;;
65597;SDS011;52267;51.984;20.956;2023-06-14T10:02:35;8.20;;;4.80;;
65597;SDS011;52267;51.984;20.956;2023-06-14T10:05:09;5.50;;;4.30;;
65597;SDS011;52267;51.984;20.956;2023-06-14T10:07:48;6.40;;;4.40;;
65597;SDS011;52267;51.984;20.956;2023-06-14T10:10:18;7.30;;;4.50;;
65597;SDS011;52267;51.984;20.956;2023-06-14T10:12:46;9.20;;;4.70;;
65597;SDS011;52267;51.984;20.956;2023-06-14T10:15:30;6.00;;;4.50;;
65597;SDS011;52267;51.984;20.956;2023-06-14T10:21:17;7.80;;;4.40;;
65597;SDS011;52267;51.984;20.956;2023-06-14T10:23:49;9.00;;;4.90;;
65597;SDS011;52267;51.984;20.956;2023-06-14T10:26:19;8.30;;;4.80;;
65597;SDS011;52267;51.984;20.956;2023-06-14T10:28:59;6.70;;;4.20;;
65597;SDS011;52267;51.984;20.956;2023-06-14T10:31:44;10.60;;;5.40;;
65597;SDS011;52267;51.984;20.956;2023-06-14T10:34:22;7.30;;;4.70;;
65597;SDS011;52267;51.984;20.956;2023-06-14T10:37:19;14.30;;;5.30;;
65597;SDS011;52267;51.984;20.956;2023-06-14T10:39:47;7.70;;;4.70;;
65597;SDS011;52267;51.984;20.956;2023-06-14T10:42:14;5.70;;;4.10;;
65597;SDS011;52267;51.984;20.956;2023-06-14T10:44:52;8.10;;;5.00;;
65597;SDS011;52267;51.984;20.956;2023-06-14T10:47:30;9.00;;;4.50;;
65597;SDS011;52267;51.984;20.956;2023-06-14T10:50:07;8.40;;;5.50;;
65597;SDS011;52267;51.984;20.956;2023-06-14T10:52:40;9.30;;;5.40;;
65597;SDS011;52267;51.984;20.956;2023-06-14T10:55:15;6.00;;;4.70;;
65597;SDS011;52267;51.984;20.956;2023-06-14T10:57:52;7.00;;;4.50;;
65597;SDS011;52267;51.984;20.956;2023-06-14T11:00:27;7.20;;;4.60;;
65597;SDS011;52267;51.984;20.956;2023-06-14T11:05:58;7.00;;;4.20;;
65597;SDS011;52267;51.984;20.956;2023-06-14T11:08:27;6.60;;;4.20;;
65597;SDS011;52267;51.984;20.956;2023-06-14T11:11:05;7.90;;;4.20;;
65597;SDS011;52267;51.984;20.956;2023-06-14T11:13:37;5.70;;;4.20;;
65597;SDS011;52267;51.984;20.956;2023-06-14T11:16:16;6.50;;;4.20;;
65597;SDS011;52267;51.984;20.956;2023-06-14T11:18:44;5.70;;;4.20;;
65597;SDS011;52267;51.984;20.956;2023-06-14T11:21:16;6.80;;;4.60;;
65597;SDS011;52267;51.984;20.956;2023-06-14T11:23:52;9.00;;;4.80;;
65597;SDS011;52267;51.984;20.956;2023-06-14T11:26:27;6.50;;;4.70;;
65597;SDS011;52267;51.984;20.956;2023-06-14T11:29:00;7.10;;;4.70;;
65597;SDS011;52267;51.984;20.956;2023-06-14T11:31:29;6.50;;;4.50;;
65597;SDS011;52267;51.984;20.956;2023-06-14T11:33:58;5.30;;;4.50;;
65597;SDS011;52267;51.984;20.956;2023-06-14T11:36:27;6.30;;;4.70;;
65597;SDS011;52267;51.984;20.956;2023-06-14T11:39:04;6.10;;;4.40;;
65597;SDS011;52267;51.984;20.956;2023-06-14T11:41:43;5.90;;;4.60;;
65597;SDS011;52267;51.984;20.956;2023-06-14T11:44:11;6.10;;;4.50;;
65597;SDS011;52267;51.984;20.956;2023-06-14T11:46:39;7.90;;;4.50;;
65597;SDS011;52267;51.984;20.956;2023-06-14T11:49:07;7.70;;;5.30;;
65597;SDS011;52267;51.984;20.956;2023-06-14T11:51:36;9.20;;;5.00;;
65597;SDS011;52267;51.984;20.956;2023-06-14T11:54:04;7.20;;;4.50;;
65597;SDS011;52267;51.984;20.956;2023-06-14T11:56:32;7.80;;;5.30;;
65597;SDS011;52267;51.984;20.956;2023-06-14T11:59:00;6.50;;;4.60;;
65597;SDS011;52267;51.984;20.956;2023-06-14T12:01:30;6.40;;;4.90;;
65597;SDS011;52267;51.984;20.956;2023-06-14T12:03:59;6.10;;;4.30;;
65597;SDS011;52267;51.984;20.956;2023-06-14T12:06:28;5.10;;;3.90;;
65597;SDS011;52267;51.984;20.956;2023-06-14T12:08:59;6.80;;;3.80;;
65597;SDS011;52267;51.984;20.956;2023-06-14T12:11:32;4.50;;;3.30;;
65597;SDS011;52267;51.984;20.956;2023-06-14T12:14:00;5.40;;;3.60;;
65597;SDS011;52267;51.984;20.956;2023-06-14T12:16:32;4.80;;;3.40;;
65597;SDS011;52267;51.984;20.956;2023-06-14T12:19:21;6.00;;;3.40;;
65597;SDS011;52267;51.984;20.956;2023-06-14T12:21:53;6.90;;;3.50;;
65597;SDS011;52267;51.984;20.956;2023-06-14T12:24:20;6.10;;;3.20;;
65597;SDS011;52267;51.984;20.956;2023-06-14T12:26:47;5.50;;;3.40;;
65597;SDS011;52267;51.984;20.956;2023-06-14T12:29:14;6.70;;;3.80;;
65597;SDS011;52267;51.984;20.956;2023-06-14T12:31:41;5.20;;;3.20;;
65597;SDS011;52267;51.984;20.956;2023-06-14T12:34:09;5.70;;;3.40;;
65597;SDS011;52267;51.984;20.956;2023-06-14T12:36:36;6.20;;;3.70;;
65597;SDS011;52267;51.984;20.956;2023-06-14T12:39:08;5.50;;;3.60;;
65597;SDS011;52267;51.984;20.956;2023-06-14T12:41:36;5.30;;;3.30;;
65597;SDS011;52267;51.984;20.956;2023-06-14T12:44:04;6.30;;;3.50;;
65597;SDS011;52267;51.984;20.956;2023-06-14T12:46:31;4.60;;;3.10;;
65597;SDS011;52267;51.984;20.956;2023-06-14T12:48:59;5.80;;;3.70;;
65597;SDS011;52267;51.984;20.956;2023-06-14T12:51:26;5.30;;;3.60;;
65597;SDS011;52267;51.984;20.956;2023-06-14T12:53:53;6.70;;;3.50;;
65597;SDS011;52267;51.984;20.956;2023-06-14T12:56:20;7.20;;;3.50;;
65597;SDS011;52267;51.984;20.956;2023-06-14T12:58:47;5.20;;;3.20;;
65597;SDS011;52267;51.984;20.956;2023-06-14T13:01:15;6.30;;;3.20;;
65597;SDS011;52267;51.984;20.956;2023-06-14T13:03:42;5.10;;;3.40;;
65597;SDS011;52267;51.984;20.956;2023-06-14T13:06:09;5.10;;;3.50;;
65597;SDS011;52267;51.984;20.956;2023-06-14T13:08:36;5.50;;;3.60;;
65597;SDS011;52267;51.984;20.956;2023-06-14T13:11:03;5.70;;;3.50;;
65597;SDS011;52267;51.984;20.956;2023-06-14T13:13:30;5.90;;;3.30;;
65597;SDS011;52267;51.984;20.956;2023-06-14T13:15:57;5.20;;;3.30;;
65597;SDS011;52267;51.984;20.956;2023-06-14T13:18:24;8.80;;;3.50;;
65597;SDS011;52267;51.984;20.956;2023-06-14T13:20:51;6.90;;;2.70;;
65597;SDS011;52267;51.984;20.956;2023-06-14T13:23:18;7.20;;;2.50;;
65597;SDS011;52267;51.984;20.956;2023-06-14T13:25:45;5.30;;;3.10;;
65597;SDS011;52267;51.984;20.956;2023-06-14T13:28:13;4.80;;;2.60;;
65597;SDS011;52267;51.984;20.956;2023-06-14T13:30:40;3.80;;;2.30;;
65597;SDS011;52267;51.984;20.956;2023-06-14T13:33:07;4.90;;;2.70;;
65597;SDS011;52267;51.984;20.956;2023-06-14T13:35:34;4.00;;;2.30;;
65597;SDS011;52267;51.984;20.956;2023-06-14T13:38:02;7.00;;;2.60;;
65597;SDS011;52267;51.984;20.956;2023-06-14T13:40:29;5.70;;;2.60;;
65597;SDS011;52267;51.984;20.956;2023-06-14T13:42:56;5.60;;;2.30;;
65597;SDS011;52267;51.984;20.956;2023-06-14T13:45:23;4.90;;;2.40;;
65597;SDS011;52267;51.984;20.956;2023-06-14T13:47:50;4.50;;;2.20;;
65597;SDS011;52267;51.984;20.956;2023-06-14T13:50:18;6.00;;;2.30;;
65597;SDS011;52267;51.984;20.956;2023-06-14T13:52:45;3.60;;;2.20;;
65597;SDS011;52267;51.984;20.956;2023-06-14T13:55:13;4.50;;;2.40;;
65597;SDS011;52267;51.984;20.956;2023-06-14T13:57:40;6.80;;;2.40;;
65597;SDS011;52267;51.984;20.956;2023-06-14T14:00:08;4.30;;;2.00;;
65597;SDS011;52267;51.984;20.956;2023-06-14T14:02:36;4.20;;;2.30;;
65597;SDS011;52267;51.984;20.956;2023-06-14T14:05:03;4.70;;;2.20;;
65597;SDS011;52267;51.984;20.956;2023-06-14T14:07:30;4.60;;;2.00;;
65597;SDS011;52267;51.984;20.956;2023-06-14T14:09:57;4.30;;;2.20;;
65597;SDS011;52267;51.984;20.956;2023-06-14T14:12:24;3.90;;;1.90;;
65597;SDS011;52267;51.984;20.956;2023-06-14T14:14:51;4.80;;;2.10;;
65597;SDS011;52267;51.984;20.956;2023-06-14T14:17:19;5.50;;;2.00;;
65597;SDS011;52267;51.984;20.956;2023-06-14T14:19:46;3.90;;;2.00;;
65597;SDS011;52267;51.984;20.956;2023-06-14T14:22:13;3.70;;;2.10;;
65597;SDS011;52267;51.984;20.956;2023-06-14T14:24:40;3.70;;;2.30;;
65597;SDS011;52267;51.984;20.956;2023-06-14T14:27:07;3.90;;;2.40;;
65597;SDS011;52267;51.984;20.956;2023-06-14T14:29:34;3.80;;;2.10;;
65597;SDS011;52267;51.984;20.956;2023-06-14T14:32:02;5.60;;;2.50;;
65597;SDS011;52267;51.984;20.956;2023-06-14T14:34:29;6.30;;;2.40;;
65597;SDS011;52267;51.984;20.956;2023-06-14T14:36:56;3.90;;;2.30;;
65597;SDS011;52267;51.984;20.956;2023-06-14T14:39:24;3.70;;;2.00;;
65597;SDS011;52267;51.984;20.956;2023-06-14T14:41:52;4.80;;;1.90;;
65597;SDS011;52267;51.984;20.956;2023-06-14T14:44:19;5.30;;;2.10;;
65597;SDS011;52267;51.984;20.956;2023-06-14T14:46:46;5.00;;;2.40;;
65597;SDS011;52267;51.984;20.956;2023-06-14T14:49:13;3.70;;;2.20;;
65597;SDS011;52267;51.984;20.956;2023-06-14T14:51:40;5.00;;;2.10;;